createdAt,value
2022-09-15T00:01:13.159Z,100821.50
2022-09-15T00:03:42.108Z,100823.63
2022-09-15T00:06:10.904Z,100823.07
2022-09-15T00:08:39.714Z,100815.48
2022-09-15T00:11:16.034Z,100811.23
2022-09-15T00:13:43.702Z,100812.05
2022-09-15T00:16:15.189Z,100812.57
2022-09-15T00:18:44.122Z,100803.88
2022-09-15T00:21:16.551Z,100800.99
2022-09-15T00:23:44.992Z,100804.46
2022-09-15T00:26:14.923Z,100790.73
2022-09-15T00:28:43.001Z,100800.77
2022-09-15T00:31:15.785Z,100797.34
2022-09-15T00:33:44.274Z,100802.34
2022-09-15T00:36:13.285Z,100800.21
2022-09-15T00:38:40.953Z,100788.63
2022-09-15T00:41:10.866Z,100784.19
2022-09-15T00:43:48.255Z,100786.51
2022-09-15T00:46:18.096Z,100767.58
2022-09-15T00:48:59.556Z,100765.22
2022-09-15T00:51:50.505Z,100766.82
2022-09-15T00:54:23.009Z,100774.48
2022-09-15T00:56:54.700Z,100781.84
2022-09-15T00:59:26.015Z,100770.26
2022-09-15T01:02:02.432Z,100765.55
2022-09-15T01:04:30.199Z,100769.99
2022-09-15T01:07:03.370Z,100765.55
2022-09-15T01:09:37.704Z,100765.55
2022-09-15T01:12:05.608Z,100762.41
2022-09-15T01:14:33.358Z,100753.71
2022-09-15T01:17:12.192Z,100764.77
2022-09-15T01:20:01.579Z,100764.53
2022-09-15T01:22:58.020Z,100766.63
2022-09-15T01:25:49.939Z,100764.53
2022-09-15T01:28:39.335Z,100776.86
2022-09-15T01:31:22.274Z,100765.05
2022-09-15T01:34:04.066Z,100765.05
2022-09-15T01:37:00.793Z,100768.27
2022-09-15T01:39:37.585Z,100765.62
2022-09-15T01:42:08.934Z,100764.83
2022-09-15T01:44:48.978Z,100766.40
2022-09-15T01:47:20.338Z,100758.48
2022-09-15T01:50:00.450Z,100757.70
2022-09-15T01:52:30.162Z,100756.36
2022-09-15T01:55:03.173Z,100755.61
2022-09-15T01:57:30.850Z,100748.77
2022-09-15T01:59:58.458Z,100748.77
2022-09-15T02:02:29.066Z,100734.32
2022-09-15T02:05:02.542Z,100744.33
2022-09-15T02:08:06.242Z,100751.16
2022-09-15T02:10:42.781Z,100742.76
2022-09-15T02:13:35.121Z,100749.88
2022-09-15T02:16:03.569Z,100755.67
2022-09-15T02:18:37.066Z,100751.98
2022-09-15T02:21:17.248Z,100748.61
2022-09-15T02:23:52.235Z,100753.61
2022-09-15T02:26:25.617Z,100747.37
2022-09-15T02:28:55.907Z,100756.88
2022-09-15T02:31:26.379Z,100747.73
2022-09-15T02:34:07.844Z,100743.28
2022-09-15T02:36:35.920Z,100749.82
2022-09-15T02:39:08.248Z,100743.57
2022-09-15T02:41:37.702Z,100734.65
2022-09-15T02:44:05.600Z,100725.75
2022-09-15T02:46:33.554Z,100727.84
2022-09-15T02:49:01.239Z,100723.37
2022-09-15T02:51:28.861Z,100713.66
2022-09-15T02:53:56.543Z,100722.35
2022-09-15T02:56:24.809Z,100725.49
2022-09-15T02:58:52.564Z,100724.48
2022-09-15T03:01:20.318Z,100730.49
2022-09-15T03:03:48.013Z,100736.80
2022-09-15T03:06:18.943Z,100721.57
2022-09-15T03:08:55.193Z,100727.62
2022-09-15T03:11:25.151Z,100727.35
2022-09-15T03:14:01.671Z,100727.35
2022-09-15T03:16:32.102Z,100721.01
2022-09-15T03:19:00.946Z,100722.13
2022-09-15T03:21:30.726Z,100740.50
2022-09-15T03:23:59.750Z,100743.41
2022-09-15T03:26:27.577Z,100741.28
2022-09-15T03:28:55.324Z,100740.50
2022-09-15T03:31:22.995Z,100741.28
2022-09-15T03:33:50.807Z,100744.95
2022-09-15T03:36:18.462Z,100747.30
2022-09-15T03:38:46.105Z,100752.99
2022-09-15T03:41:14.436Z,100751.32
2022-09-15T03:43:42.637Z,100752.86
2022-09-15T03:46:12.908Z,100753.32
2022-09-15T03:48:41.613Z,100753.32
2022-09-15T03:51:11.606Z,100749.88
2022-09-15T03:53:41.326Z,100754.34
2022-09-15T03:56:20.929Z,100751.16
2022-09-15T03:58:48.651Z,100752.20
2022-09-15T04:01:16.542Z,100742.53
2022-09-15T04:03:48.825Z,100741.74
2022-09-15T04:06:20.352Z,100747.23
2022-09-15T04:25:29.038Z,100744.95
2022-09-15T04:27:58.414Z,100743.15
2022-09-15T04:30:26.086Z,100742.10
2022-09-15T04:32:54.845Z,100740.01
2022-09-15T04:35:23.061Z,100741.35
2022-09-15T04:37:50.874Z,100737.95
2022-09-15T04:40:18.508Z,100739.06
2022-09-15T04:42:48.513Z,100735.14
2022-09-15T04:45:16.174Z,100724.09
2022-09-15T04:47:43.923Z,100721.77
2022-09-15T04:50:11.597Z,100720.20
2022-09-15T04:52:39.324Z,100721.83
2022-09-15T04:55:07.095Z,100728.37
2022-09-15T04:57:34.729Z,100731.84
2022-09-15T05:00:05.360Z,100735.23
2022-09-15T05:02:33.990Z,100733.44
2022-09-15T05:05:01.690Z,100736.41
2022-09-15T05:07:29.308Z,100737.00
2022-09-15T05:09:56.910Z,100734.09
2022-09-15T05:12:24.544Z,100743.87
2022-09-15T05:14:52.166Z,100744.42
2022-09-15T05:17:20.471Z,100743.34
2022-09-15T05:19:49.941Z,100752.34
2022-09-15T05:22:17.567Z,100748.12
2022-09-15T05:24:45.153Z,100746.55
2022-09-15T05:27:13.014Z,100741.55
2022-09-15T05:29:40.595Z,100741.55
2022-09-15T05:32:08.234Z,100737.88
2022-09-15T05:34:35.873Z,100736.55
2022-09-15T05:37:03.766Z,100732.33
2022-09-15T05:39:31.543Z,100727.55
2022-09-15T05:41:59.186Z,100726.27
2022-09-15T05:44:26.879Z,100725.46
2022-09-15T05:46:54.636Z,100724.67
2022-09-15T05:49:22.263Z,100729.41
2022-09-15T05:51:49.910Z,100734.65
2022-09-15T05:54:17.575Z,100728.80
2022-09-15T05:56:45.268Z,100735.07
2022-09-15T05:59:12.852Z,100726.93
2022-09-15T06:01:40.531Z,100735.30
2022-09-15T06:04:08.238Z,100725.55
2022-09-15T06:06:35.903Z,100733.14
2022-09-15T06:09:06.659Z,100729.16
2022-09-15T06:11:37.447Z,100729.94
2022-09-15T06:14:05.473Z,100740.96
2022-09-15T06:16:35.904Z,100743.87
2022-09-15T06:19:04.582Z,100740.96
2022-09-15T06:21:33.738Z,100744.59
2022-09-15T06:24:04.679Z,100739.06
2022-09-15T06:26:32.463Z,100740.83
2022-09-15T06:29:02.678Z,100739.52
2022-09-15T06:31:35.182Z,100740.01
2022-09-15T06:34:05.082Z,100740.76
2022-09-15T06:36:33.761Z,100747.37
2022-09-15T06:39:01.629Z,100747.37
2022-09-15T06:41:47.070Z,100748.38
2022-09-15T06:44:17.976Z,100749.16
2022-09-15T06:46:45.840Z,100753.84
2022-09-15T06:49:13.457Z,100757.02
2022-09-15T06:51:41.320Z,100760.38
2022-09-15T06:54:09.145Z,100757.18
2022-09-15T06:56:38.328Z,100755.22
2022-09-15T06:59:06.717Z,100748.58
2022-09-15T07:01:34.582Z,100744.03
2022-09-15T07:04:05.344Z,100758.23
2022-09-15T07:06:34.902Z,100753.19
2022-09-15T07:09:05.669Z,100757.60
2022-09-15T07:11:34.432Z,100766.20
2022-09-15T07:14:02.238Z,100763.23
2022-09-15T07:16:30.015Z,100766.14
2022-09-15T07:19:01.538Z,100768.46
2022-09-15T07:21:30.483Z,100779.22
2022-09-15T07:24:00.714Z,100787.85
2022-09-15T07:26:31.917Z,100771.70
2022-09-15T07:29:02.765Z,100783.44
2022-09-15T07:31:33.631Z,100768.85
2022-09-15T07:34:02.210Z,100779.58
2022-09-15T07:36:30.945Z,100791.09
2022-09-15T07:38:59.648Z,100790.47
2022-09-15T07:41:32.268Z,100797.59
2022-09-15T07:44:01.638Z,100799.95
2022-09-15T07:46:32.384Z,100797.92
2022-09-15T07:49:01.711Z,100807.08
2022-09-15T07:51:29.586Z,100797.04
2022-09-15T07:53:57.657Z,100810.22
2022-09-15T07:56:25.729Z,100809.34
2022-09-15T07:58:53.632Z,100810.34
2022-09-15T08:01:23.391Z,100810.02
2022-09-15T08:03:53.007Z,100821.53
2022-09-15T08:06:23.320Z,100819.99
2022-09-15T08:08:55.237Z,100819.18
2022-09-15T08:11:27.730Z,100832.62
2022-09-15T08:13:55.579Z,100831.02
2022-09-15T08:16:25.088Z,100833.86
2022-09-15T08:18:54.784Z,100839.32
2022-09-15T08:21:23.418Z,100841.12
2022-09-15T08:23:56.981Z,100840.63
2022-09-15T08:26:25.591Z,100840.56
2022-09-15T08:28:53.806Z,100840.56
2022-09-15T08:31:21.837Z,100842.69
2022-09-15T08:33:55.325Z,100839.32
2022-09-15T08:36:24.201Z,100835.33
2022-09-15T08:38:52.043Z,100843.02
2022-09-15T08:41:25.422Z,100846.68
2022-09-15T08:44:20.667Z,100847.23
2022-09-15T08:47:17.996Z,100848.57
2022-09-15T08:50:02.642Z,100847.56
2022-09-15T08:52:39.401Z,100846.55
2022-09-15T08:55:42.683Z,100857.70
2022-09-15T08:58:27.028Z,100856.12
2022-09-15T09:01:36.329Z,100852.43
2022-09-15T09:04:36.756Z,100851.09
2022-09-15T09:07:18.118Z,100860.58
2022-09-15T09:10:02.666Z,100853.22
2022-09-15T09:12:42.289Z,100859.56
2022-09-15T09:15:40.659Z,100861.42
2022-09-15T09:18:39.697Z,100864.11
2022-09-15T09:21:32.649Z,100856.81
2022-09-15T09:24:26.713Z,100862.47
2022-09-15T09:26:56.941Z,100860.22
2022-09-15T09:29:36.833Z,100858.65
2022-09-15T09:32:05.422Z,100863.09
2022-09-15T09:35:01.993Z,100864.73
2022-09-15T09:37:30.265Z,100859.27
2022-09-15T09:39:57.923Z,100862.24
2022-09-15T09:42:31.441Z,100854.40
2022-09-15T09:44:59.325Z,100856.29
2022-09-15T09:47:31.088Z,100863.48
2022-09-15T09:49:59.282Z,100855.21
2022-09-15T09:52:38.590Z,100859.89
2022-09-15T09:55:28.317Z,100846.68
2022-09-15T09:58:30.643Z,100850.34
2022-09-15T10:01:11.604Z,100849.72
2022-09-15T10:03:39.951Z,100844.03
2022-09-15T10:06:08.634Z,100841.67
2022-09-15T10:08:38.075Z,100833.34
2022-09-15T10:11:11.411Z,100844.62
2022-09-15T10:13:53.697Z,100838.08
2022-09-15T10:16:22.423Z,100832.29
2022-09-15T10:18:54.480Z,100825.72
2022-09-15T10:21:25.815Z,100818.06
2022-09-15T10:23:53.649Z,100817.21
2022-09-15T10:26:35.951Z,100815.65
2022-09-15T10:29:18.580Z,100818.75
2022-09-15T10:31:47.118Z,100804.98
2022-09-15T10:34:47.126Z,100822.25
2022-09-15T10:37:31.744Z,100811.82
2022-09-15T10:40:02.418Z,100815.05
2022-09-15T10:42:52.090Z,100817.28
2022-09-15T10:45:38.497Z,100812.87
2022-09-15T10:48:48.281Z,100815.77
2022-09-15T10:51:22.036Z,100814.30
2022-09-15T10:53:57.576Z,100823.13
2022-09-15T10:56:30.727Z,100822.22
2022-09-15T10:59:19.585Z,100813.98
2022-09-15T11:02:13.153Z,100823.59
2022-09-15T11:04:48.769Z,100820.62
2022-09-15T11:07:41.817Z,100813.29
2022-09-15T11:10:22.223Z,100810.45
2022-09-15T11:12:55.965Z,100825.00
2022-09-15T11:15:49.965Z,100823.04
2022-09-15T11:18:54.498Z,100813.13
2022-09-15T11:21:44.855Z,100810.91
2022-09-15T11:24:45.527Z,100803.64
2022-09-15T11:27:35.352Z,100821.30
2022-09-15T11:30:21.292Z,100809.56
2022-09-15T11:33:06.872Z,100814.14
2022-09-15T11:35:47.162Z,100808.02
2022-09-15T11:38:48.997Z,100816.27
2022-09-15T11:41:16.588Z,100809.23
2022-09-15T11:44:03.663Z,100804.66
2022-09-15T11:46:54.590Z,100788.66
2022-09-15T11:49:27.695Z,100809.76
2022-09-15T11:52:07.575Z,100810.64
2022-09-15T11:54:46.451Z,100811.27
2022-09-15T11:57:23.969Z,100807.93
2022-09-15T12:00:11.343Z,100827.19
2022-09-15T12:02:47.981Z,100824.08
2022-09-15T12:05:22.554Z,100813.16
2022-09-15T12:08:06.572Z,100815.80
2022-09-15T12:10:43.626Z,100817.94
2022-09-15T12:13:20.386Z,100821.17
2022-09-15T12:15:49.562Z,100828.98
2022-09-15T12:18:39.872Z,100834.02
2022-09-15T12:21:20.840Z,100829.70
2022-09-15T12:24:09.085Z,100833.30
2022-09-15T12:26:37.094Z,100837.42
2022-09-15T12:29:25.949Z,100852.66
2022-09-15T12:32:18.190Z,100837.23
2022-09-15T12:35:02.523Z,100839.62
2022-09-15T12:37:45.608Z,100843.44
2022-09-15T12:40:42.968Z,100845.50
2022-09-15T12:43:17.401Z,100837.65
2022-09-15T12:45:57.163Z,100836.31
2022-09-15T12:48:30.308Z,100839.68
2022-09-15T12:51:04.253Z,100839.62
2022-09-15T12:54:00.424Z,100836.87
2022-09-15T12:56:30.492Z,100836.24
2022-09-15T12:59:06.692Z,100839.05
2022-09-15T13:01:56.241Z,100838.99
2022-09-15T13:04:28.991Z,100840.46
2022-09-15T13:07:19.640Z,100833.23
2022-09-15T13:09:58.655Z,100835.49
2022-09-15T13:12:34.211Z,100823.46
2022-09-15T13:15:06.441Z,100824.48
2022-09-15T13:17:35.216Z,100830.30
2022-09-15T13:20:15.384Z,100833.11
2022-09-15T13:22:51.467Z,100831.77
2022-09-15T13:25:27.311Z,100826.21
2022-09-15T13:27:58.707Z,100829.34
2022-09-15T13:30:35.303Z,100828.86
2022-09-15T13:35:01.065Z,100835.07
2022-09-15T13:36:24.342Z,100828.92
2022-09-15T13:39:14.025Z,100846.94
2022-09-15T13:41:58.079Z,100835.73
2022-09-15T13:45:13.177Z,100829.58
2022-09-15T13:48:17.912Z,100822.67
2022-09-15T13:51:01.926Z,100839.12
2022-09-15T13:53:53.688Z,100850.63
2022-09-15T13:56:30.015Z,100847.07
2022-09-15T13:59:09.851Z,100846.97
2022-09-15T14:01:40.621Z,100845.47
2022-09-15T14:04:16.278Z,100832.98
2022-09-15T14:06:50.287Z,100826.63
2022-09-15T14:09:20.011Z,100820.68
2022-09-15T14:11:50.575Z,100817.84
2022-09-15T14:14:37.059Z,100823.63
2022-09-15T14:17:05.433Z,100815.22
2022-09-15T14:19:35.171Z,100813.95
2022-09-15T14:22:20.078Z,100817.41
2022-09-15T14:24:48.575Z,100817.64
2022-09-15T14:27:23.081Z,100818.69
2022-09-15T14:29:56.263Z,100823.85
2022-09-15T14:32:24.814Z,100813.09
2022-09-15T14:34:53.619Z,100820.91
2022-09-15T14:37:29.698Z,100831.96
2022-09-15T14:39:59.256Z,100840.10
2022-09-15T14:42:51.665Z,100835.88
2022-09-15T14:48:17.400Z,100839.02
2022-09-15T14:50:48.013Z,100841.12
2022-09-15T14:53:23.073Z,100831.41
2022-09-15T14:56:04.354Z,100834.32
2022-09-15T14:58:50.898Z,100827.19
2022-09-15T15:01:25.229Z,100824.31
2022-09-15T15:03:58.925Z,100829.87
2022-09-15T15:06:36.135Z,100826.96
2022-09-15T15:09:22.495Z,100825.42
2022-09-15T15:11:55.506Z,100828.13
2022-09-15T15:17:02.099Z,100833.50
2022-09-15T15:19:38.692Z,100839.05
2022-09-15T15:22:21.012Z,100835.10
2022-09-15T15:24:51.063Z,100840.10
2022-09-15T15:27:42.156Z,100842.46
2022-09-15T15:30:31.758Z,100846.68
2022-09-15T15:33:17.401Z,100859.82
2022-09-15T15:35:47.201Z,100858.02
2022-09-15T15:38:20.563Z,100843.80
2022-09-15T15:40:48.418Z,100847.23
2022-09-15T15:43:22.679Z,100839.88
2022-09-15T15:46:01.910Z,100839.38
2022-09-15T15:48:35.240Z,100853.87
2022-09-15T15:51:06.459Z,100863.87
2022-09-15T15:53:34.200Z,100864.92
2022-09-15T15:56:02.248Z,100870.45
2022-09-15T15:58:29.955Z,100872.02
2022-09-15T16:00:58.415Z,100877.58
2022-09-15T16:03:26.733Z,100876.01
2022-09-15T16:05:58.570Z,100874.67
2022-09-15T16:08:29.815Z,100872.31
2022-09-15T16:10:58.683Z,100870.45
2022-09-15T16:13:26.635Z,100872.28
2022-09-15T16:15:55.431Z,100868.85
2022-09-15T16:18:23.358Z,100871.73
2022-09-15T16:20:51.279Z,100874.87
2022-09-15T16:23:21.671Z,100882.22
2022-09-15T16:26:02.622Z,100892.23
2022-09-15T16:28:30.873Z,100906.16
2022-09-15T16:30:59.168Z,100904.59
2022-09-15T16:33:27.393Z,100905.63
2022-09-15T16:35:56.302Z,100907.20
2022-09-15T16:38:26.846Z,100902.98
2022-09-15T16:40:54.788Z,100894.84
2022-09-15T16:43:23.378Z,100905.31
2022-09-15T16:45:52.095Z,100910.09
2022-09-15T16:48:20.147Z,100920.84
2022-09-15T16:51:09.165Z,100921.92
2022-09-15T16:53:37.801Z,100929.02
2022-09-15T16:56:06.909Z,100928.23
2022-09-15T16:58:35.001Z,100920.38
2022-09-15T17:01:02.936Z,100935.10
2022-09-15T17:03:31.546Z,100934.54
2022-09-15T17:06:01.520Z,100936.11
2022-09-15T17:08:33.758Z,100935.03
2022-09-15T17:11:04.447Z,100924.54
2022-09-15T17:13:35.234Z,100929.48
2022-09-15T17:16:05.200Z,100929.73
2022-09-15T17:18:32.966Z,100936.51
2022-09-15T17:21:00.860Z,100930.16
2022-09-15T17:23:32.967Z,100925.95
2022-09-15T17:26:03.431Z,100921.73
2022-09-15T17:28:33.706Z,100923.55
2022-09-15T17:31:12.987Z,100937.52
2022-09-15T17:33:40.897Z,100917.51
2022-09-15T17:36:09.137Z,100927.22
2022-09-15T17:38:36.817Z,100929.87
2022-09-15T17:41:04.549Z,100939.32
2022-09-15T17:43:33.041Z,100934.31
2022-09-15T17:46:00.944Z,100941.41
2022-09-15T17:48:28.811Z,100933.20
2022-09-15T17:50:56.532Z,100933.43
2022-09-15T17:53:27.867Z,100932.84
2022-09-15T17:55:56.683Z,100929.12
2022-09-15T17:58:27.742Z,100932.74
2022-09-15T18:00:55.573Z,100941.61
2022-09-15T18:03:26.038Z,100933.17
2022-09-15T18:05:53.891Z,100942.95
2022-09-15T18:08:21.646Z,100953.25
2022-09-15T18:10:49.717Z,100955.66
2022-09-15T18:13:23.567Z,100958.05
2022-09-15T18:15:51.946Z,100957.34
2022-09-15T18:18:22.211Z,100959.98
2022-09-15T18:20:54.103Z,100969.73
2022-09-15T18:23:24.713Z,100966.88
2022-09-15T18:25:52.709Z,100974.80
2022-09-15T18:28:21.009Z,100972.67
2022-09-15T18:30:50.813Z,100979.80
2022-09-15T18:33:20.464Z,100982.16
2022-09-15T18:35:50.216Z,100984.02
2022-09-15T18:38:18.920Z,100991.93
2022-09-15T18:40:56.239Z,100985.09
2022-09-15T18:43:29.251Z,100992.48
2022-09-15T18:46:01.413Z,100988.30
2022-09-15T18:48:30.324Z,100996.18
2022-09-15T18:50:58.224Z,101000.17
2022-09-15T18:53:26.103Z,100999.39
2022-09-15T18:55:53.800Z,100993.34
2022-09-15T18:58:21.538Z,100998.11
2022-09-15T19:00:50.131Z,100998.63
2022-09-15T19:03:17.797Z,101004.20
2022-09-15T19:05:46.842Z,101000.50
2022-09-15T19:08:14.674Z,100997.62
2022-09-15T19:10:45.138Z,100993.96
2022-09-15T19:13:14.993Z,101006.32
2022-09-15T19:15:44.863Z,100997.62
2022-09-15T19:18:12.770Z,101000.53
2022-09-15T19:20:41.432Z,101001.09
2022-09-15T19:23:10.470Z,101006.55
2022-09-15T19:25:38.555Z,101007.10
2022-09-15T19:28:06.266Z,101005.27
2022-09-15T19:30:34.262Z,101008.97
2022-09-15T19:33:05.802Z,101001.84
2022-09-15T19:35:33.471Z,100993.17
2022-09-15T19:38:01.113Z,101000.76
2022-09-15T19:40:29.097Z,101009.46
2022-09-15T19:42:56.810Z,101011.59
2022-09-15T19:45:24.444Z,101012.89
2022-09-15T19:47:52.198Z,101008.12
2022-09-15T19:50:19.970Z,101020.51
2022-09-15T19:52:47.612Z,101016.33
2022-09-15T19:55:15.254Z,101020.77
2022-09-15T19:57:43.554Z,101022.57
2022-09-15T20:00:13.717Z,101027.09
2022-09-15T20:02:41.846Z,101020.45
2022-09-15T20:05:10.269Z,101022.54
2022-09-15T20:07:38.052Z,101026.73
2022-09-15T20:10:06.203Z,101021.23
2022-09-15T20:12:33.959Z,101018.06
2022-09-15T20:15:01.648Z,101030.09
2022-09-15T20:17:29.588Z,101025.41
2022-09-15T20:19:57.357Z,101029.30
2022-09-15T20:22:25.228Z,101030.88
2022-09-15T20:24:52.943Z,101034.05
2022-09-15T20:27:20.561Z,101029.57
2022-09-15T20:29:48.484Z,101031.43
2022-09-15T20:32:16.269Z,101037.45
2022-09-15T20:34:44.061Z,101034.41
2022-09-15T20:37:11.731Z,101044.12
2022-09-15T20:39:39.481Z,101045.46
2022-09-15T20:42:07.231Z,101049.91
2022-09-15T20:44:34.914Z,101046.54
2022-09-15T20:47:02.521Z,101052.33
2022-09-15T20:49:30.122Z,101044.71
2022-09-15T20:51:57.753Z,101058.94
2022-09-15T20:54:25.446Z,101059.72
2022-09-15T20:56:53.083Z,101058.67
2022-09-15T20:59:20.778Z,101066.84
2022-09-15T21:01:48.632Z,101062.14
2022-09-15T21:04:16.290Z,101067.89
2022-09-15T21:06:43.924Z,101067.63
2022-09-15T21:09:11.705Z,101066.62
2022-09-15T21:11:40.575Z,101066.36
2022-09-15T21:14:08.741Z,101069.79
2022-09-15T21:16:36.419Z,101072.41
2022-09-15T21:19:04.624Z,101061.65
2022-09-15T21:21:34.084Z,101063.48
2022-09-15T21:24:05.026Z,101064.55
2022-09-15T21:26:34.238Z,101073.48
2022-09-15T21:29:02.742Z,101076.92
2022-09-15T21:31:33.398Z,101077.18
2022-09-15T21:34:01.136Z,101070.34
2022-09-15T21:36:31.517Z,101068.77
2022-09-15T21:39:00.281Z,101077.93
2022-09-15T21:41:30.998Z,101084.67
2022-09-15T21:44:00.096Z,101075.22
2022-09-15T21:46:30.767Z,101077.05
2022-09-15T21:49:00.079Z,101083.63
2022-09-15T21:51:29.825Z,101090.69
2022-09-15T21:53:59.563Z,101081.59
2022-09-15T21:56:29.261Z,101079.93
2022-09-15T21:58:57.082Z,101084.05
2022-09-15T22:01:30.333Z,101079.60
2022-09-15T22:04:00.274Z,101074.14
2022-09-15T22:06:35.391Z,101084.90
2022-09-15T22:09:09.723Z,101081.76
2022-09-15T22:11:37.912Z,101084.41
2022-09-15T22:14:09.134Z,101080.42
2022-09-15T22:16:39.170Z,101078.85
2022-09-15T22:19:08.385Z,101080.35
2022-09-15T22:21:38.000Z,101083.98
2022-09-15T22:24:07.933Z,101095.00
2022-09-15T22:26:38.204Z,101087.16
2022-09-15T22:29:06.675Z,101082.19
2022-09-15T22:31:35.208Z,101086.14
2022-09-15T22:34:03.272Z,101076.76
2022-09-15T22:36:32.334Z,101067.60
2022-09-15T22:39:06.061Z,101076.59
2022-09-15T22:41:36.189Z,101071.63
2022-09-15T22:44:05.135Z,101080.05
2022-09-15T22:46:33.545Z,101076.98
2022-09-15T22:49:01.238Z,101076.79
2022-09-15T22:51:29.066Z,101073.12
2022-09-15T22:53:57.942Z,101071.06
2022-09-15T22:56:27.146Z,101065.80
2022-09-15T22:58:55.568Z,101072.93
2022-09-15T23:01:29.395Z,101062.47
2022-09-15T23:03:59.647Z,101060.37
2022-09-15T23:06:29.778Z,101066.42
2022-09-15T23:09:00.235Z,101079.57
2022-09-15T23:11:29.893Z,101077.12
2022-09-15T23:13:57.607Z,101074.99
2022-09-15T23:16:26.221Z,101077.87
2022-09-15T23:18:54.986Z,101077.12
2022-09-15T23:21:22.690Z,101071.33
2022-09-15T23:23:50.852Z,101072.63
2022-09-15T23:26:21.331Z,101057.95
2022-09-15T23:28:50.605Z,101058.97
2022-09-15T23:31:19.209Z,101061.35
2022-09-15T23:33:47.318Z,101068.22
2022-09-15T23:36:17.920Z,101067.21
2022-09-15T23:38:46.947Z,101063.25
2022-09-15T23:41:15.764Z,101068.55
2022-09-15T23:43:43.524Z,101068.81
2022-09-15T23:46:14.768Z,101067.24
2022-09-15T23:48:42.950Z,101058.31
2022-09-15T23:51:10.618Z,101058.58
2022-09-15T23:53:38.324Z,101064.88
2022-09-15T23:56:06.188Z,101060.18
2022-09-15T23:58:33.779Z,101056.48
